Time;durP1;ratioP1;P1;durP2;ratioP2;P2;SDS_P1;SDS_P2;PMS_P1;PMS_P2;Temp;Humidity;BMP_temperature;BMP_pressure;BME280_temperature;BME280_humidity;BME280_pressure;Samples;Min_cycle;Max_cycle;Signal;HPM_P1;HPM_P2
2022/01/25 00:15:15;;;;;;;61.70;36.50;;;5.70;99.90;;;;;;6043156;23;20101;-79
2022/01/25 00:28:46;;;;;;;62.60;37.63;;;5.70;99.90;;;;;;6042985;23;20019;-75
2022/01/25 00:31:16;;;;;;;66.03;37.42;;;5.70;99.90;;;;;;6042920;23;20026;-75
2022/01/25 00:33:52;;;;;;;61.10;38.28;;;5.70;99.90;;;;;;6069015;23;20010;-75
2022/01/25 00:36:20;;;;;;;64.63;38.38;;;5.70;99.90;;;;;;6068637;23;20019;-75
2022/01/25 00:38:48;;;;;;;65.32;38.17;;;5.70;99.90;;;;;;6042613;23;20018;-75
2022/01/25 00:41:14;;;;;;;61.47;36.88;;;5.70;99.90;;;;;;6042682;23;20335;-75
2022/01/25 00:43:44;;;;;;;63.83;38.45;;;5.70;99.90;;;;;;6019351;23;20010;-75
2022/01/25 00:46:12;;;;;;;64.00;36.30;;;5.70;99.90;;;;;;6043031;23;20022;-75
2022/01/25 00:54:32;;;;;;;65.40;37.42;;;5.70;99.90;;;;;;5928600;24;20108;-75
2022/01/25 00:56:58;;;;;;;62.78;37.92;;;5.70;99.90;;;;;;5952684;24;20047;-75
2022/01/25 00:59:29;;;;;;;63.25;38.00;;;5.60;99.90;;;;;;5991933;23;20023;-75
2022/01/25 01:01:58;;;;;;;62.42;37.40;;;5.70;99.90;;;;;;6068489;23;20078;-78
2022/01/25 01:04:24;;;;;;;63.92;37.17;;;5.30;99.90;;;;;;6043435;23;20010;-79
2022/01/25 01:06:51;;;;;;;64.50;37.67;;;6.20;99.90;;;;;;6019764;23;20015;-78
2022/01/25 01:09:19;;;;;;;64.22;38.40;;;5.60;99.90;;;;;;6068221;23;20015;-78
2022/01/25 01:12:04;;;;;;;63.70;38.70;;;5.90;99.90;;;;;;6067649;23;20015;-78
2022/01/25 01:43:37;;;;;;;63.25;36.90;;;5.60;99.90;;;;;;6067622;23;20015;-77
2022/01/25 01:49:01;;;;;;;67.40;38.42;;;5.70;99.90;;;;;;6042749;23;20078;-78
2022/01/25 01:51:33;;;;;;;65.97;37.88;;;5.60;99.90;;;;;;6041611;23;20026;-78
2022/01/25 01:54:03;;;;;;;64.10;38.30;;;5.70;99.90;;;;;;6042193;23;20027;-79
2022/01/25 01:56:29;;;;;;;67.30;37.92;;;5.60;99.90;;;;;;6018627;23;20019;-78
2022/01/25 01:58:57;;;;;;;65.82;38.30;;;5.60;99.90;;;;;;6042243;23;20023;-78
2022/01/25 02:01:25;;;;;;;66.18;39.33;;;5.60;99.90;;;;;;6017957;23;20015;-79
2022/01/25 02:03:52;;;;;;;66.10;38.03;;;6.30;99.90;;;;;;6042564;23;20372;-79
2022/01/25 02:06:18;;;;;;;66.30;39.55;;;6.30;99.90;;;;;;5995504;23;20011;-77
2022/01/25 02:08:44;;;;;;;68.70;39.63;;;5.60;99.90;;;;;;6067555;23;20025;-77
2022/01/25 02:11:10;;;;;;;67.80;39.40;;;5.60;99.90;;;;;;6042643;23;20015;-77
2022/01/25 02:13:40;;;;;;;64.72;37.28;;;5.60;99.90;;;;;;6067975;23;20018;-77
2022/01/25 02:16:09;;;;;;;61.45;39.13;;;5.80;99.90;;;;;;6019811;23;20019;-77
2022/01/25 02:24:05;;;;;;;66.80;38.50;;;5.90;99.90;;;;;;6042169;23;20081;-75
2022/01/25 02:26:31;;;;;;;67.07;38.97;;;5.50;99.90;;;;;;6067629;23;20026;-75
2022/01/25 02:28:57;;;;;;;69.00;38.42;;;5.60;99.90;;;;;;6067739;23;20349;-75
2022/01/25 02:31:23;;;;;;;64.85;39.83;;;5.50;99.90;;;;;;6018450;23;20054;-75
2022/01/25 02:33:48;;;;;;;65.65;38.65;;;6.00;99.90;;;;;;6041314;23;20042;-76
2022/01/25 02:36:24;;;;;;;64.90;38.80;;;5.90;99.90;;;;;;6018547;23;20018;-75
2022/01/25 02:38:50;;;;;;;68.65;39.40;;;5.50;99.90;;;;;;6018524;23;20023;-75
2022/01/25 02:41:15;;;;;;;64.00;38.80;;;5.50;99.90;;;;;;6018436;23;20042;-75
2022/01/25 02:43:43;;;;;;;66.93;38.60;;;5.50;99.90;;;;;;6018748;23;20337;-75
2022/01/25 02:49:07;;;;;;;61.60;38.22;;;6.00;99.90;;;;;;6041967;23;20023;-75
2022/01/25 02:51:40;;;;;;;64.20;38.88;;;5.50;99.90;;;;;;6066761;23;20015;-75
2022/01/25 02:54:08;;;;;;;67.57;40.35;;;5.60;99.90;;;;;;6042171;23;20019;-75
2022/01/25 02:56:42;;;;;;;69.88;38.63;;;5.50;99.90;;;;;;6042074;23;20022;-75
2022/01/25 02:59:09;;;;;;;60.42;36.92;;;5.50;99.90;;;;;;5972618;23;20090;-75
2022/01/25 03:01:36;;;;;;;63.40;39.40;;;5.50;99.90;;;;;;5995526;23;20022;-76
2022/01/25 03:04:03;;;;;;;65.25;38.50;;;5.60;99.90;;;;;;6042209;23;20086;-75
2022/01/25 03:06:29;;;;;;;65.97;39.13;;;5.60;99.90;;;;;;6041115;23;20018;-75
2022/01/25 03:08:55;;;;;;;65.95;38.55;;;5.60;99.90;;;;;;6042448;23;20030;-75
2022/01/25 03:11:23;;;;;;;67.65;39.95;;;6.30;99.90;;;;;;6067760;23;20050;-75
2022/01/25 03:16:28;;;;;;;70.90;40.92;;;5.50;99.90;;;;;;6067804;23;20018;-75
2022/01/25 03:18:56;;;;;;;69.95;42.53;;;5.50;99.90;;;;;;6019625;23;20043;-76
2022/01/25 03:23:55;;;;;;;65.40;40.53;;;5.50;99.90;;;;;;6043002;23;20035;-75
2022/01/25 03:26:23;;;;;;;69.63;41.22;;;6.10;99.90;;;;;;6043712;23;20097;-75
2022/01/25 03:28:50;;;;;;;68.97;41.03;;;5.70;99.90;;;;;;6043601;23;20135;-75
2022/01/25 03:31:15;;;;;;;66.53;40.72;;;5.50;99.90;;;;;;6044388;23;20019;-75
2022/01/25 03:33:42;;;;;;;71.25;41.67;;;5.50;99.90;;;;;;6043994;23;20029;-76
2022/01/25 03:36:08;;;;;;;67.93;42.17;;;5.50;99.90;;;;;;6043702;23;20093;-76
2022/01/25 03:38:36;;;;;;;66.13;39.50;;;5.40;99.90;;;;;;6069006;23;20022;-76
2022/01/25 03:41:04;;;;;;;68.60;41.05;;;6.20;99.90;;;;;;6042953;23;20101;-76
2022/01/25 03:43:30;;;;;;;69.97;41.40;;;6.00;99.90;;;;;;6069012;23;20103;-76
2022/01/25 03:46:04;;;;;;;71.38;42.40;;;5.90;99.90;;;;;;6069210;23;20026;-76
2022/01/25 03:50:55;;;;;;;71.57;41.20;;;5.50;99.90;;;;;;6043377;23;20038;-76
2022/01/25 03:53:21;;;;;;;75.63;41.97;;;5.50;99.90;;;;;;6043073;23;20027;-76
2022/01/25 03:55:51;;;;;;;71.35;42.55;;;5.50;99.90;;;;;;6043549;23;20037;-76
2022/01/25 03:58:17;;;;;;;74.05;43.80;;;5.50;99.90;;;;;;6068376;23;20074;-78
2022/01/25 04:00:43;;;;;;;70.28;40.92;;;5.50;99.90;;;;;;6068313;23;20399;-78
2022/01/25 04:03:16;;;;;;;71.07;43.78;;;5.50;99.90;;;;;;6068636;23;20019;-79
2022/01/25 04:08:10;;;;;;;69.63;41.13;;;5.50;99.90;;;;;;6042636;23;20022;-79
2022/01/25 04:10:36;;;;;;;69.97;43.03;;;5.50;99.90;;;;;;6019011;23;20345;-79
2022/01/25 04:13:02;;;;;;;67.88;41.35;;;5.40;99.90;;;;;;6042369;23;20031;-78
2022/01/25 04:15:27;;;;;;;66.20;40.83;;;5.40;99.90;;;;;;6019567;23;20446;-79
2022/01/25 04:18:02;;;;;;;73.00;44.15;;;5.70;99.90;;;;;;6042587;23;20074;-79
2022/01/25 04:20:33;;;;;;;66.32;41.38;;;5.60;99.90;;;;;;5997700;23;20074;-79
2022/01/25 04:25:44;;;;;;;68.60;43.13;;;5.50;99.90;;;;;;6002766;23;20106;-75
2022/01/25 04:28:12;;;;;;;64.28;41.60;;;5.50;99.90;;;;;;6043003;23;20050;-76
2022/01/25 04:30:38;;;;;;;68.93;41.55;;;5.50;99.90;;;;;;6042095;23;20070;-76
2022/01/25 04:33:16;;;;;;;68.05;41.72;;;5.50;99.90;;;;;;6019124;23;20493;-76
2022/01/25 04:35:56;;;;;;;71.35;42.05;;;6.00;99.90;;;;;;6042787;23;20074;-76
2022/01/25 04:49:28;;;;;;;75.88;42.85;;;5.40;99.90;;;;;;6042108;23;20082;-75
2022/01/25 04:52:00;;;;;;;70.75;42.30;;;5.60;99.90;;;;;;6068226;23;20019;-75
2022/01/25 04:57:42;;;;;;;70.93;44.00;;;5.40;99.90;;;;;;6042976;23;20335;-75
2022/01/25 05:00:18;;;;;;;68.90;40.70;;;5.40;99.90;;;;;;6018721;23;20038;-75
2022/01/25 05:05:24;;;;;;;73.05;42.08;;;5.70;99.90;;;;;;6042792;23;20359;-75
2022/01/25 05:10:16;;;;;;;69.90;42.45;;;5.40;99.90;;;;;;6042919;23;20057;-75
2022/01/25 05:12:54;;;;;;;72.53;41.42;;;5.40;99.90;;;;;;6068041;23;20089;-75
2022/01/25 05:15:59;;;;;;;70.53;41.10;;;5.40;99.90;;;;;;6067951;23;20192;-75
2022/01/25 05:18:14;;;;;;;70.25;41.95;;;5.40;99.90;;;;;;6066063;23;20050;-75
2022/01/25 05:23:24;;;;;;;70.40;41.85;;;5.30;99.90;;;;;;6067467;23;20034;-75
2022/01/25 05:25:53;;;;;;;69.03;41.38;;;5.40;99.90;;;;;;6042738;23;20378;-75
2022/01/25 05:28:19;;;;;;;71.15;41.42;;;5.80;99.90;;;;;;6042596;23;20022;-79
2022/01/25 05:30:45;;;;;;;71.30;41.55;;;6.00;99.90;;;;;;6043374;23;20076;-78
2022/01/25 05:33:11;;;;;;;72.43;41.70;;;5.40;99.90;;;;;;6018929;23;20019;-79
2022/01/25 05:35:37;;;;;;;72.40;41.35;;;5.40;99.90;;;;;;6042090;23;20065;-79
2022/01/25 05:38:03;;;;;;;70.53;41.92;;;5.40;99.90;;;;;;5996038;23;20019;-79
2022/01/25 05:40:58;;;;;;;67.32;39.45;;;5.40;99.90;;;;;;6041554;23;20023;-79
2022/01/25 05:48:21;;;;;;;71.70;41.38;;;5.40;99.90;;;;;;6042259;23;20101;-77
2022/01/25 05:50:47;;;;;;;70.28;40.97;;;6.00;99.90;;;;;;6041801;23;20105;-77
2022/01/25 05:53:12;;;;;;;72.70;41.65;;;5.40;99.90;;;;;;6018619;23;20023;-77
2022/01/25 05:55:38;;;;;;;69.55;40.72;;;5.40;99.90;;;;;;6018975;23;20027;-77
2022/01/25 05:58:04;;;;;;;69.38;40.67;;;5.40;99.90;;;;;;6042632;23;20022;-77
2022/01/25 06:00:29;;;;;;;70.38;41.22;;;5.40;99.90;;;;;;6042526;23;20018;-77
2022/01/25 06:02:56;;;;;;;72.95;42.00;;;5.40;99.90;;;;;;6041935;23;20066;-77
2022/01/25 06:05:23;;;;;;;77.82;42.35;;;5.40;99.90;;;;;;6042393;23;20076;-76
2022/01/25 06:07:50;;;;;;;71.40;42.38;;;5.40;99.90;;;;;;6018388;23;20138;-75
2022/01/25 06:10:16;;;;;;;74.10;42.30;;;5.40;99.90;;;;;;6042141;23;20018;-75
2022/01/25 06:12:44;;;;;;;71.93;41.35;;;5.40;99.90;;;;;;6042364;23;20089;-77
2022/01/25 06:15:13;;;;;;;75.93;42.58;;;5.40;99.90;;;;;;6041940;23;20015;-77
2022/01/25 06:17:39;;;;;;;73.15;41.92;;;5.40;99.90;;;;;;5994600;23;20027;-77
2022/01/25 06:20:06;;;;;;;69.53;41.40;;;5.50;99.90;;;;;;6040857;23;20398;-77
2022/01/25 06:22:32;;;;;;;74.85;42.28;;;5.40;99.90;;;;;;6041217;23;20022;-77
2022/01/25 06:24:58;;;;;;;68.78;41.30;;;5.50;99.90;;;;;;6041697;23;20023;-77
2022/01/25 06:27:24;;;;;;;71.82;41.63;;;5.50;99.90;;;;;;6067987;23;20105;-77
2022/01/25 06:29:50;;;;;;;72.22;41.47;;;5.50;99.90;;;;;;5994530;23;20087;-77
2022/01/25 06:32:18;;;;;;;71.75;40.55;;;5.50;99.90;;;;;;6041991;23;20022;-78
2022/01/25 06:34:44;;;;;;;73.40;42.78;;;5.30;99.90;;;;;;6042360;23;20489;-78
2022/01/25 06:37:12;;;;;;;72.15;42.67;;;5.40;99.90;;;;;;6042463;23;20023;-78
2022/01/25 06:39:39;;;;;;;75.13;41.40;;;5.40;99.90;;;;;;6067262;23;20086;-78
2022/01/25 06:42:06;;;;;;;75.38;40.10;;;5.50;99.90;;;;;;6067473;23;20015;-75
2022/01/25 06:44:36;;;;;;;77.55;42.42;;;5.40;99.90;;;;;;6018498;23;20366;-76
2022/01/25 06:47:03;;;;;;;71.47;41.60;;;5.40;99.90;;;;;;6041905;23;20430;-76
2022/01/25 06:49:28;;;;;;;75.43;42.47;;;5.40;99.90;;;;;;6042315;23;20070;-76
2022/01/25 06:51:58;;;;;;;72.53;42.08;;;5.40;99.90;;;;;;6043940;23;20015;-76
2022/01/25 06:54:23;;;;;;;71.13;41.88;;;5.50;99.90;;;;;;6020464;23;20046;-75
2022/01/25 06:56:49;;;;;;;72.63;41.78;;;5.80;99.90;;;;;;6019864;23;20015;-75
2022/01/25 06:59:15;;;;;;;71.50;42.63;;;5.50;99.90;;;;;;6019722;23;20028;-79
2022/01/25 07:01:41;;;;;;;68.40;42.10;;;5.40;99.90;;;;;;6043537;23;20011;-79
2022/01/25 07:04:07;;;;;;;69.82;41.05;;;5.40;99.90;;;;;;6070041;23;20011;-79
2022/01/25 07:06:33;;;;;;;77.18;42.92;;;6.40;99.90;;;;;;6020540;23;20397;-79
2022/01/25 07:09:00;;;;;;;73.15;42.63;;;5.80;99.90;;;;;;6043802;23;20102;-80
2022/01/25 07:11:29;;;;;;;78.75;43.67;;;5.40;99.90;;;;;;6018340;23;20054;-78
2022/01/25 07:13:55;;;;;;;76.70;42.42;;;5.50;99.90;;;;;;6068506;23;20026;-70
2022/01/25 07:16:21;;;;;;;78.53;43.22;;;5.40;99.90;;;;;;6043286;23;20026;-74
2022/01/25 07:18:47;;;;;;;76.15;42.40;;;5.50;99.90;;;;;;6042321;23;20015;-76
2022/01/25 07:21:13;;;;;;;71.10;41.22;;;5.40;99.90;;;;;;6044275;23;20089;-75
2022/01/25 07:23:38;;;;;;;72.93;41.97;;;5.50;99.90;;;;;;6043094;23;20046;-75
2022/01/25 07:26:04;;;;;;;72.15;42.65;;;5.40;99.90;;;;;;6069597;23;20097;-76
2022/01/25 07:28:30;;;;;;;77.28;43.05;;;5.50;99.90;;;;;;6069369;23;20029;-75
2022/01/25 07:30:56;;;;;;;77.15;41.83;;;5.40;99.90;;;;;;6019735;23;20022;-71
2022/01/25 07:33:22;;;;;;;72.32;42.47;;;5.40;99.90;;;;;;6043760;23;20019;-71
2022/01/25 07:35:47;;;;;;;73.55;42.17;;;6.30;99.90;;;;;;6069682;23;20014;-71
2022/01/25 07:38:17;;;;;;;72.95;43.65;;;5.40;99.90;;;;;;6069940;23;20147;-75
2022/01/25 07:40:44;;;;;;;75.68;43.15;;;5.50;99.90;;;;;;6043935;23;20461;-70
2022/01/25 07:43:09;;;;;;;71.90;41.80;;;5.40;99.90;;;;;;6069568;23;20090;-70
2022/01/25 07:45:36;;;;;;;80.75;44.20;;;5.60;99.90;;;;;;6069318;23;20046;-75
2022/01/25 07:48:04;;;;;;;71.90;42.00;;;5.40;99.90;;;;;;6042322;23;20070;-76
2022/01/25 07:50:30;;;;;;;72.82;44.28;;;5.40;99.90;;;;;;6043267;23;20054;-72
2022/01/25 07:52:55;;;;;;;73.93;43.25;;;5.40;99.90;;;;;;6043524;23;20019;-72
2022/01/25 07:55:21;;;;;;;80.75;42.72;;;5.40;99.90;;;;;;6042866;23;20023;-79
2022/01/25 07:57:47;;;;;;;78.47;43.30;;;5.40;99.90;;;;;;6042611;23;20023;-78
2022/01/25 08:00:16;;;;;;;76.25;41.97;;;5.40;99.90;;;;;;6018977;23;20074;-79
2022/01/25 08:02:44;;;;;;;72.88;42.10;;;5.40;99.90;;;;;;6043253;23;20018;-79
2022/01/25 08:05:16;;;;;;;76.10;44.33;;;5.40;99.90;;;;;;6019708;23;20386;-77
2022/01/25 08:07:46;;;;;;;69.95;42.67;;;5.50;99.90;;;;;;6039096;23;20099;-78
2022/01/25 08:10:12;;;;;;;78.60;44.45;;;5.50;99.90;;;;;;6016328;23;20437;-78
2022/01/25 08:12:38;;;;;;;82.18;44.75;;;5.50;99.90;;;;;;6041077;23;20078;-79
2022/01/25 08:15:06;;;;;;;76.82;44.78;;;5.50;99.90;;;;;;6017787;23;20326;-79
2022/01/25 08:17:32;;;;;;;75.70;42.80;;;5.50;99.90;;;;;;6041479;23;20022;-78
2022/01/25 08:19:58;;;;;;;76.70;44.20;;;5.50;99.90;;;;;;6040815;23;20011;-78
2022/01/25 08:22:24;;;;;;;72.57;42.65;;;5.50;99.90;;;;;;6066523;23;20022;-78
2022/01/25 08:24:51;;;;;;;76.95;44.60;;;6.00;99.90;;;;;;6039519;23;20023;-78
2022/01/25 08:27:20;;;;;;;75.45;43.85;;;5.50;99.90;;;;;;6040401;23;20046;-78
2022/01/25 08:29:53;;;;;;;81.25;46.35;;;5.50;99.90;;;;;;6065950;23;20019;-79
2022/01/25 08:32:19;;;;;;;74.82;44.30;;;5.50;99.90;;;;;;6016064;23;20031;-78
2022/01/25 08:34:46;;;;;;;75.00;43.80;;;5.50;99.90;;;;;;6063651;23;20019;-79
2022/01/25 08:37:13;;;;;;;76.50;44.30;;;6.40;99.90;;;;;;6015615;23;20023;-78
2022/01/25 08:39:39;;;;;;;77.93;45.78;;;5.50;99.90;;;;;;6041341;23;20350;-70
2022/01/25 08:42:05;;;;;;;75.88;44.92;;;5.50;99.90;;;;;;6064967;23;20015;-78
2022/01/25 08:44:33;;;;;;;76.22;45.25;;;5.50;99.90;;;;;;6039863;23;20017;-79
2022/01/25 08:46:59;;;;;;;81.03;46.53;;;5.50;99.90;;;;;;6065437;23;20014;-78
2022/01/25 08:49:25;;;;;;;78.18;46.03;;;5.50;99.90;;;;;;6066445;23;20123;-79
2022/01/25 08:51:50;;;;;;;79.30;45.13;;;5.40;99.90;;;;;;6016846;23;20015;-78
2022/01/25 08:54:16;;;;;;;82.80;46.55;;;5.40;99.90;;;;;;6039725;23;20023;-78
2022/01/25 08:56:43;;;;;;;79.18;45.33;;;5.50;99.90;;;;;;6016639;23;20026;-78
2022/01/25 08:59:12;;;;;;;84.88;46.55;;;5.70;99.90;;;;;;6065827;23;20042;-78
2022/01/25 09:01:38;;;;;;;77.97;46.85;;;5.40;99.90;;;;;;6040152;23;20017;-77
2022/01/25 09:04:04;;;;;;;82.50;45.78;;;5.40;99.90;;;;;;6065066;23;20015;-77
2022/01/25 09:06:32;;;;;;;78.68;45.72;;;5.40;99.90;;;;;;6040119;23;20023;-77
2022/01/25 09:09:04;;;;;;;77.78;45.78;;;5.40;99.90;;;;;;6041088;23;20355;-77
2022/01/25 09:11:30;;;;;;;81.18;46.70;;;5.40;99.90;;;;;;6016517;23;20449;-77
2022/01/25 09:13:59;;;;;;;79.88;45.97;;;5.40;99.90;;;;;;6065086;23;20461;-77
2022/01/25 09:16:24;;;;;;;80.40;46.30;;;5.40;99.90;;;;;;6040557;23;20018;-76
2022/01/25 09:18:50;;;;;;;78.97;45.42;;;5.30;99.90;;;;;;6040278;23;20029;-82
2022/01/25 09:21:19;;;;;;;80.10;47.13;;;5.40;99.90;;;;;;6040118;23;20010;-82
2022/01/25 09:23:45;;;;;;;80.88;46.28;;;5.80;99.90;;;;;;6016830;23;20341;-82
2022/01/25 09:26:11;;;;;;;76.82;44.97;;;5.50;99.90;;;;;;6017255;23;20065;-81
2022/01/25 09:28:37;;;;;;;75.82;44.30;;;5.50;99.90;;;;;;5993797;23;20097;-81
2022/01/25 09:31:03;;;;;;;82.82;46.17;;;5.60;99.90;;;;;;6016588;23;20030;-81
2022/01/25 09:33:30;;;;;;;80.25;45.03;;;5.60;99.90;;;;;;6017005;23;20015;-81
2022/01/25 09:35:56;;;;;;;83.18;45.53;;;5.60;99.90;;;;;;6039619;23;20029;-81
2022/01/25 09:38:23;;;;;;;78.30;45.42;;;5.60;99.90;;;;;;6016387;23;20052;-81
2022/01/25 09:40:50;;;;;;;81.70;45.42;;;5.60;99.90;;;;;;6039690;23;20018;-81
2022/01/25 09:43:16;;;;;;;76.88;45.33;;;6.20;99.90;;;;;;6040215;23;20396;-80
2022/01/25 09:45:42;;;;;;;86.03;44.88;;;5.60;99.90;;;;;;5992847;23;20021;-78
2022/01/25 09:48:09;;;;;;;76.80;44.67;;;5.70;99.90;;;;;;6066344;23;20093;-80
2022/01/25 09:50:37;;;;;;;81.20;45.22;;;5.60;99.90;;;;;;6065773;23;20019;-80
2022/01/25 09:53:04;;;;;;;77.35;45.55;;;5.60;99.90;;;;;;6015910;23;20077;-79
2022/01/25 09:55:38;;;;;;;87.32;46.67;;;5.60;99.90;;;;;;6039945;23;20030;-81
2022/01/25 09:58:04;;;;;;;83.63;45.55;;;5.70;99.90;;;;;;6039224;23;20098;-76
2022/01/25 10:00:32;;;;;;;81.15;46.28;;;6.00;99.90;;;;;;6040402;23;20053;-76
2022/01/25 10:05:38;;;;;;;77.57;45.20;;;5.60;99.90;;;;;;6018599;23;20159;-75
2022/01/25 10:08:09;;;;;;;79.95;45.03;;;5.70;99.90;;;;;;6040066;23;20030;-76
2022/01/25 10:10:56;;;;;;;78.65;45.25;;;5.60;99.90;;;;;;6039095;23;20014;-76
2022/01/25 10:13:23;;;;;;;80.63;46.78;;;5.70;99.90;;;;;;6039012;23;20046;-76
2022/01/25 10:16:01;;;;;;;76.25;44.83;;;5.70;99.90;;;;;;6039513;23;20015;-76
2022/01/25 10:18:48;;;;;;;83.10;46.10;;;5.70;99.90;;;;;;6064801;23;20023;-76
2022/01/25 10:21:32;;;;;;;81.70;46.25;;;5.70;99.90;;;;;;6039636;23;20070;-76
2022/01/25 10:24:19;;;;;;;79.43;43.75;;;5.70;99.90;;;;;;6015742;23;20025;-76
2022/01/25 10:26:56;;;;;;;80.35;45.10;;;5.70;99.90;;;;;;6064530;23;20386;-76
2022/01/25 10:29:30;;;;;;;81.72;46.33;;;5.70;99.90;;;;;;6039027;23;20378;-76
2022/01/25 10:32:05;;;;;;;77.40;45.03;;;5.60;99.90;;;;;;6039623;23;20090;-76
2022/01/25 10:34:40;;;;;;;78.45;44.42;;;5.60;99.90;;;;;;6064915;23;20019;-75
2022/01/25 10:37:11;;;;;;;75.40;43.67;;;5.60;99.90;;;;;;6062929;23;20020;-76
2022/01/25 10:39:41;;;;;;;75.07;44.63;;;5.60;99.90;;;;;;6039387;23;20501;-76
2022/01/25 10:42:22;;;;;;;80.30;44.97;;;5.60;99.90;;;;;;6065328;23;20017;-75
2022/01/25 10:44:54;;;;;;;79.82;45.50;;;5.60;99.90;;;;;;6016237;23;20090;-76
2022/01/25 10:47:49;;;;;;;80.88;44.15;;;5.80;99.90;;;;;;6016198;23;20056;-77
2022/01/25 10:50:18;;;;;;;79.82;46.22;;;5.70;99.90;;;;;;6041283;23;20097;-75
2022/01/25 10:52:45;;;;;;;79.35;43.88;;;5.70;99.90;;;;;;6067755;23;20015;-75
2022/01/25 10:55:11;;;;;;;80.60;44.63;;;5.70;99.90;;;;;;6018340;23;20096;-75
2022/01/25 10:57:37;;;;;;;75.03;43.97;;;5.70;99.90;;;;;;6042022;23;20345;-75
2022/01/25 11:00:10;;;;;;;83.53;45.10;;;5.70;99.90;;;;;;6042457;23;20011;-75
2022/01/25 11:02:49;;;;;;;80.65;45.92;;;5.70;99.90;;;;;;6018199;23;20015;-75
2022/01/25 11:05:14;;;;;;;80.75;44.55;;;5.70;99.90;;;;;;6067856;23;20022;-75
2022/01/25 11:07:46;;;;;;;78.78;44.55;;;5.70;99.90;;;;;;6067559;23;20018;-75
2022/01/25 11:10:21;;;;;;;81.40;45.70;;;6.20;99.90;;;;;;6067608;23;20047;-75
2022/01/25 11:13:10;;;;;;;;;;;5.80;99.90;;;;;;6042370;23;20465;-75
2022/01/25 11:15:39;;;;;;;81.72;45.88;;;5.70;99.90;;;;;;6041914;23;19920;-75
2022/01/25 11:18:05;;;;;;;80.60;46.25;;;5.60;99.90;;;;;;6041831;23;20473;-75
2022/01/25 11:20:34;;;;;;;83.38;46.40;;;5.80;99.90;;;;;;6042480;23;20094;-75
2022/01/25 11:23:01;;;;;;;76.60;44.42;;;5.70;99.90;;;;;;5995102;23;20018;-75
2022/01/25 11:25:27;;;;;;;85.07;47.65;;;5.80;99.90;;;;;;6018552;23;20030;-75
2022/01/25 11:27:58;;;;;;;83.18;45.65;;;5.80;99.90;;;;;;6042275;23;20454;-75
2022/01/25 11:30:25;;;;;;;77.43;45.33;;;5.80;99.90;;;;;;5995528;23;20054;-75
2022/01/25 11:32:54;;;;;;;85.28;47.60;;;5.70;99.90;;;;;;6067519;23;20034;-75
2022/01/25 11:35:23;;;;;;;84.63;45.63;;;5.70;99.90;;;;;;6067418;23;20014;-75
2022/01/25 11:37:50;;;;;;;79.32;44.88;;;5.70;99.90;;;;;;6042541;23;20027;-75
2022/01/25 11:40:45;;;;;;;82.85;47.08;;;5.70;99.90;;;;;;6069477;23;20010;-75
2022/01/25 11:43:15;;;;;;;81.63;46.38;;;5.80;99.90;;;;;;6043106;23;20343;-75
2022/01/25 11:45:43;;;;;;;80.03;45.25;;;5.80;99.90;;;;;;6043471;23;20461;-75
2022/01/25 11:48:09;;;;;;;82.90;47.13;;;5.80;99.90;;;;;;6069264;23;20101;-75
2022/01/25 11:50:39;;;;;;;80.43;44.97;;;5.80;99.90;;;;;;6019947;23;20054;-75
2022/01/25 11:53:08;;;;;;;80.53;45.28;;;5.70;99.90;;;;;;6043583;23;20021;-75
2022/01/25 11:55:51;;;;;;;83.95;45.58;;;6.00;99.90;;;;;;6019840;23;20029;-75
2022/01/25 11:58:31;;;;;;;80.05;45.72;;;5.80;99.90;;;;;;6043248;23;20446;-75
2022/01/25 12:00:59;;;;;;;87.38;48.25;;;5.80;99.90;;;;;;6043661;23;20037;-75
2022/01/25 12:03:28;;;;;;;82.10;46.35;;;5.80;99.90;;;;;;6043365;23;20014;-75
2022/01/25 12:06:05;;;;;;;80.88;43.92;;;5.70;99.90;;;;;;6068843;23;20021;-75
2022/01/25 12:11:31;;;;;;;79.90;45.05;;;5.80;99.90;;;;;;6043171;23;20022;-75
2022/01/25 12:14:16;;;;;;;85.22;46.60;;;5.80;99.90;;;;;;6019672;23;20442;-74
2022/01/25 12:17:03;;;;;;;82.18;44.88;;;5.80;99.90;;;;;;6043239;23;20034;-74
2022/01/25 12:19:44;;;;;;;90.22;45.60;;;5.80;99.90;;;;;;6023652;23;20019;-74
2022/01/25 12:22:18;;;;;;;82.55;44.42;;;5.80;99.90;;;;;;6043397;23;20046;-75
2022/01/25 12:24:52;;;;;;;80.07;45.60;;;5.80;99.90;;;;;;6043384;23;20023;-74
2022/01/25 12:27:58;;;;;;;82.50;45.47;;;5.80;99.90;;;;;;6069241;23;20082;-74
2022/01/25 12:30:39;;;;;;;80.35;45.72;;;5.80;99.90;;;;;;6068790;23;20457;-74
2022/01/25 12:33:18;;;;;;;83.95;44.22;;;5.70;99.90;;;;;;6043418;23;20015;-74
2022/01/25 12:35:52;;;;;;;87.00;45.75;;;5.70;99.90;;;;;;6043099;23;20026;-74
2022/01/25 12:38:25;;;;;;;84.93;45.63;;;5.70;99.90;;;;;;6019801;23;20019;-74
2022/01/25 12:40:55;;;;;;;84.05;45.63;;;5.80;99.90;;;;;;6068749;23;20057;-75
2022/01/25 12:43:54;;;;;;;84.75;46.55;;;5.80;99.90;;;;;;6020419;23;20011;-75
2022/01/25 12:46:28;;;;;;;78.03;45.03;;;5.70;99.90;;;;;;6046794;23;20019;-75
2022/01/25 12:49:00;;;;;;;83.72;46.53;;;5.80;99.90;;;;;;6043069;23;20063;-75
2022/01/25 12:51:33;;;;;;;79.78;45.67;;;6.00;99.90;;;;;;6043482;23;20019;-75
2022/01/25 12:54:03;;;;;;;82.88;45.65;;;5.80;99.90;;;;;;6043217;23;20023;-75
2022/01/25 12:56:34;;;;;;;85.30;44.75;;;5.80;99.90;;;;;;6043132;23;20022;-75
2022/01/25 12:59:07;;;;;;;79.63;45.00;;;5.80;99.90;;;;;;6042880;23;20118;-75
2022/01/25 13:01:36;;;;;;;81.53;46.13;;;5.80;99.90;;;;;;6068317;23;20094;-75
2022/01/25 13:04:05;;;;;;;81.70;45.90;;;5.80;99.90;;;;;;6068447;23;20015;-75
2022/01/25 13:06:36;;;;;;;85.10;44.40;;;5.80;99.90;;;;;;6068295;23;20110;-75
2022/01/25 13:09:22;;;;;;;82.05;44.90;;;5.90;99.90;;;;;;6043166;23;20044;-75
2022/01/25 13:17:16;;;;;;;84.82;45.63;;;5.80;99.90;;;;;;6042789;23;20350;-75
2022/01/25 13:19:54;;;;;;;85.63;46.67;;;5.80;99.90;;;;;;6068277;23;20089;-75
2022/01/25 13:22:31;;;;;;;86.07;46.67;;;5.80;99.90;;;;;;6038607;23;20023;-76
2022/01/25 13:27:47;;;;;;;79.78;46.42;;;5.90;99.90;;;;;;6065923;23;20019;-76
2022/01/25 13:32:59;;;;;;;83.95;46.90;;;5.90;99.90;;;;;;6066567;23;20021;-70
2022/01/25 13:35:34;;;;;;;84.35;45.67;;;5.90;99.90;;;;;;6066274;23;20006;-73
2022/01/25 13:38:17;;;;;;;88.20;46.38;;;5.90;99.90;;;;;;6067308;23;20015;-72
2022/01/25 13:41:00;;;;;;;85.55;45.85;;;5.90;99.90;;;;;;6018374;23;20015;-75
2022/01/25 13:46:18;;;;;;;90.53;47.45;;;5.90;99.90;;;;;;6068208;23;20078;-75
2022/01/25 13:48:46;;;;;;;85.40;47.47;;;5.80;99.90;;;;;;6068337;23;20093;-74
2022/01/25 13:51:20;;;;;;;89.07;47.85;;;5.90;99.90;;;;;;6042322;23;20019;-74
2022/01/25 13:53:59;;;;;;;87.38;47.63;;;6.10;99.90;;;;;;6019593;23;20496;-73
2022/01/25 13:56:28;;;;;;;86.50;45.75;;;5.80;99.90;;;;;;6068209;23;20026;-74
2022/01/25 13:58:55;;;;;;;83.18;46.92;;;5.80;99.90;;;;;;6042502;23;20019;-74
2022/01/25 14:01:23;;;;;;;87.15;44.40;;;5.80;99.90;;;;;;6042769;23;20011;-74
2022/01/25 14:04:15;;;;;;;84.38;46.00;;;5.80;99.90;;;;;;6042386;23;20031;-75
2022/01/25 14:06:43;;;;;;;81.68;44.40;;;5.80;99.90;;;;;;6013178;23;20378;-73
2022/01/25 14:09:21;;;;;;;87.57;47.53;;;5.80;99.90;;;;;;6043129;23;20014;-74
2022/01/25 14:23:06;;;;;;;81.53;45.67;;;5.80;99.90;;;;;;6042638;23;20025;-73
2022/01/25 14:25:40;;;;;;;85.13;46.28;;;5.70;99.90;;;;;;6042352;23;20019;-72
2022/01/25 14:28:12;;;;;;;90.07;45.55;;;5.70;99.90;;;;;;6042559;23;20029;-74
2022/01/25 14:30:40;;;;;;;85.75;46.13;;;5.70;99.90;;;;;;6018882;23;20022;-73
2022/01/25 14:33:27;;;;;;;87.65;46.15;;;5.70;99.90;;;;;;6068412;23;20019;-73
2022/01/25 14:36:00;;;;;;;79.50;42.92;;;5.70;99.90;;;;;;6067726;23;20074;-74
2022/01/25 14:38:38;;;;;;;85.57;45.90;;;5.70;99.90;;;;;;6018927;23;20124;-73
2022/01/25 14:41:17;;;;;;;84.68;45.58;;;5.70;99.90;;;;;;6042611;23;20059;-74
2022/01/25 14:43:49;;;;;;;84.22;45.90;;;6.60;99.90;;;;;;6017752;23;20022;-75
2022/01/25 14:46:22;;;;;;;83.68;46.53;;;5.70;99.90;;;;;;6042006;23;20015;-73
2022/01/25 14:49:07;;;;;;;79.68;44.17;;;5.70;99.90;;;;;;6042339;23;20045;-73
2022/01/25 14:51:37;;;;;;;80.93;44.53;;;5.70;99.90;;;;;;6042040;23;20078;-73
2022/01/25 14:54:07;;;;;;;81.70;44.03;;;5.60;99.90;;;;;;6043389;23;20038;-73
2022/01/25 14:56:36;;;;;;;82.65;45.15;;;5.70;99.90;;;;;;6042399;23;20393;-73
2022/01/25 14:59:28;;;;;;;76.10;44.67;;;5.90;99.90;;;;;;6042999;23;20090;-73
2022/01/25 15:02:23;;;;;;;89.57;46.08;;;5.80;99.90;;;;;;6018564;23;20090;-73
2022/01/25 15:04:54;;;;;;;83.55;46.13;;;5.70;99.90;;;;;;5997232;23;20021;-74
2022/01/25 15:07:23;;;;;;;80.75;45.20;;;5.70;99.90;;;;;;6041953;23;20014;-73
2022/01/25 15:10:00;;;;;;;84.38;46.20;;;5.70;99.90;;;;;;6018257;23;20034;-73
2022/01/25 15:12:37;;;;;;;92.22;46.03;;;5.70;99.90;;;;;;6067981;23;20015;-73
2022/01/25 15:15:09;;;;;;;88.88;46.03;;;5.60;99.90;;;;;;6069871;23;20022;-73